Terminal Aerodrome Forecast
Issued by NWS

Home | Current Version | Previous Version | Text Only | Print | Product List | Glossary Off
Versions: 1 2 3 4 5 6 7 8 9 10 11 12 13 14 15 16 17 18 19 20 21 22 23

000
FTUS43 KGRB 271711 AAC
TAFCWA
TAF AMD
KCWA 271711Z 2717/2812 29010G19KT 3SM -RASNPL SCT006 OVC016
      TEMPO 2717/2719 3/4SM -SN BR BKN006
     FM271900 29012G20KT 5SM -SNDZ OVC011
     FM272000 27011G19KT P6SM OVC016
     FM280400 25009KT P6SM BKN018
     FM280700 25007KT P6SM SCT024=

USA.gov is the U.S. government's official web portal to all federal, state and local government web resources and services.